sensor_id;sensor_type;location;lat;lon;timestamp;temperature;humidity
20496;DHT22;10406;54.132;17.968;2024-03-25T00:01:34;4.90;99.90
20496;DHT22;10406;54.132;17.968;2024-03-25T00:06:54;4.90;99.90
20496;DHT22;10406;54.132;17.968;2024-03-25T00:12:16;4.90;99.90
20496;DHT22;10406;54.132;17.968;2024-03-25T00:17:39;4.80;99.90
20496;DHT22;10406;54.132;17.968;2024-03-25T00:23:01;4.90;99.90
20496;DHT22;10406;54.132;17.968;2024-03-25T00:28:22;4.80;99.90
20496;DHT22;10406;54.132;17.968;2024-03-25T00:33:44;4.90;99.90
20496;DHT22;10406;54.132;17.968;2024-03-25T00:39:05;4.80;99.90
20496;DHT22;10406;54.132;17.968;2024-03-25T00:44:27;4.90;99.90
20496;DHT22;10406;54.132;17.968;2024-03-25T00:49:49;4.80;99.90
20496;DHT22;10406;54.132;17.968;2024-03-25T00:55:10;4.80;99.90
20496;DHT22;10406;54.132;17.968;2024-03-25T01:00:31;4.80;99.90
20496;DHT22;10406;54.132;17.968;2024-03-25T01:05:53;4.80;99.90
20496;DHT22;10406;54.132;17.968;2024-03-25T01:11:14;4.80;99.90
20496;DHT22;10406;54.132;17.968;2024-03-25T01:16:35;4.70;99.90
20496;DHT22;10406;54.132;17.968;2024-03-25T01:21:58;4.70;99.90
20496;DHT22;10406;54.132;17.968;2024-03-25T01:27:18;4.70;99.90
20496;DHT22;10406;54.132;17.968;2024-03-25T01:32:39;4.70;99.90
20496;DHT22;10406;54.132;17.968;2024-03-25T01:38:02;4.70;99.90
20496;DHT22;10406;54.132;17.968;2024-03-25T01:43:24;4.80;99.90
20496;DHT22;10406;54.132;17.968;2024-03-25T01:48:45;4.80;99.90
20496;DHT22;10406;54.132;17.968;2024-03-25T01:54:07;4.70;99.90
20496;DHT22;10406;54.132;17.968;2024-03-25T01:59:29;4.70;99.90
20496;DHT22;10406;54.132;17.968;2024-03-25T02:04:50;4.70;99.90
20496;DHT22;10406;54.132;17.968;2024-03-25T02:10:13;4.70;99.90
20496;DHT22;10406;54.132;17.968;2024-03-25T02:15:34;4.70;99.90
20496;DHT22;10406;54.132;17.968;2024-03-25T02:20:56;4.70;99.90
20496;DHT22;10406;54.132;17.968;2024-03-25T02:26:18;4.70;99.90
20496;DHT22;10406;54.132;17.968;2024-03-25T02:31:40;4.70;99.90
20496;DHT22;10406;54.132;17.968;2024-03-25T02:37:00;4.70;99.90
20496;DHT22;10406;54.132;17.968;2024-03-25T02:42:23;4.70;99.90
20496;DHT22;10406;54.132;17.968;2024-03-25T02:47:45;4.70;99.90
20496;DHT22;10406;54.132;17.968;2024-03-25T02:53:06;4.70;99.90
20496;DHT22;10406;54.132;17.968;2024-03-25T02:58:28;4.80;99.90
20496;DHT22;10406;54.132;17.968;2024-03-25T03:03:49;4.80;99.90
20496;DHT22;10406;54.132;17.968;2024-03-25T03:09:10;4.80;99.90
20496;DHT22;10406;54.132;17.968;2024-03-25T03:14:33;4.80;99.90
20496;DHT22;10406;54.132;17.968;2024-03-25T03:19:54;4.80;99.90
20496;DHT22;10406;54.132;17.968;2024-03-25T03:25:15;4.90;99.90
20496;DHT22;10406;54.132;17.968;2024-03-25T03:30:38;4.80;99.90
20496;DHT22;10406;54.132;17.968;2024-03-25T03:35:58;4.80;99.90
20496;DHT22;10406;54.132;17.968;2024-03-25T03:41:20;4.80;99.90
20496;DHT22;10406;54.132;17.968;2024-03-25T03:46:42;4.80;99.90
20496;DHT22;10406;54.132;17.968;2024-03-25T03:52:03;4.90;99.90
20496;DHT22;10406;54.132;17.968;2024-03-25T03:57:24;4.80;99.90
20496;DHT22;10406;54.132;17.968;2024-03-25T04:02:47;4.90;99.90
20496;DHT22;10406;54.132;17.968;2024-03-25T04:08:08;4.80;99.90
20496;DHT22;10406;54.132;17.968;2024-03-25T04:13:29;4.90;99.90
20496;DHT22;10406;54.132;17.968;2024-03-25T04:18:51;4.80;99.90
20496;DHT22;10406;54.132;17.968;2024-03-25T04:24:12;4.80;99.90
20496;DHT22;10406;54.132;17.968;2024-03-25T04:29:33;4.80;99.90
20496;DHT22;10406;54.132;17.968;2024-03-25T04:34:55;4.80;99.90
20496;DHT22;10406;54.132;17.968;2024-03-25T04:40:16;4.80;99.90
20496;DHT22;10406;54.132;17.968;2024-03-25T04:45:36;4.90;99.90
20496;DHT22;10406;54.132;17.968;2024-03-25T04:50:57;4.90;99.90
20496;DHT22;10406;54.132;17.968;2024-03-25T04:56:17;4.70;99.90
20496;DHT22;10406;54.132;17.968;2024-03-25T05:01:37;4.80;99.90
20496;DHT22;10406;54.132;17.968;2024-03-25T05:06:59;4.80;99.90
20496;DHT22;10406;54.132;17.968;2024-03-25T05:12:19;4.80;99.90
20496;DHT22;10406;54.132;17.968;2024-03-25T05:17:38;4.90;99.90
20496;DHT22;10406;54.132;17.968;2024-03-25T05:23:00;4.90;99.90
20496;DHT22;10406;54.132;17.968;2024-03-25T05:28:20;4.90;99.90
20496;DHT22;10406;54.132;17.968;2024-03-25T05:33:40;5.10;99.90
20496;DHT22;10406;54.132;17.968;2024-03-25T05:39:01;5.10;99.90
20496;DHT22;10406;54.132;17.968;2024-03-25T05:44:21;5.20;99.90
20496;DHT22;10406;54.132;17.968;2024-03-25T05:49:41;5.30;99.90
20496;DHT22;10406;54.132;17.968;2024-03-25T05:55:03;5.40;99.90
20496;DHT22;10406;54.132;17.968;2024-03-25T06:00:22;5.50;99.90
20496;DHT22;10406;54.132;17.968;2024-03-25T06:05:42;5.50;99.90
20496;DHT22;10406;54.132;17.968;2024-03-25T06:11:04;5.60;99.90
20496;DHT22;10406;54.132;17.968;2024-03-25T06:16:23;5.60;99.90
20496;DHT22;10406;54.132;17.968;2024-03-25T06:21:43;5.80;99.90
20496;DHT22;10406;54.132;17.968;2024-03-25T06:27:05;5.80;99.90
20496;DHT22;10406;54.132;17.968;2024-03-25T06:32:24;5.90;99.90
20496;DHT22;10406;54.132;17.968;2024-03-25T06:38:03;5.90;99.90
20496;DHT22;10406;54.132;17.968;2024-03-25T06:43:24;5.90;99.90
20496;DHT22;10406;54.132;17.968;2024-03-25T06:48:44;5.90;99.90
20496;DHT22;10406;54.132;17.968;2024-03-25T06:54:04;6.00;99.90
20496;DHT22;10406;54.132;17.968;2024-03-25T06:59:26;6.10;99.90
20496;DHT22;10406;54.132;17.968;2024-03-25T07:04:46;6.20;99.90
20496;DHT22;10406;54.132;17.968;2024-03-25T07:10:06;6.20;99.90
20496;DHT22;10406;54.132;17.968;2024-03-25T07:15:29;6.30;99.90
20496;DHT22;10406;54.132;17.968;2024-03-25T07:20:49;6.40;99.90
20496;DHT22;10406;54.132;17.968;2024-03-25T07:26:09;6.60;99.90
20496;DHT22;10406;54.132;17.968;2024-03-25T07:31:31;6.80;99.90
20496;DHT22;10406;54.132;17.968;2024-03-25T07:36:51;6.90;99.90
20496;DHT22;10406;54.132;17.968;2024-03-25T07:42:11;7.00;99.90
20496;DHT22;10406;54.132;17.968;2024-03-25T07:47:32;7.00;99.90
20496;DHT22;10406;54.132;17.968;2024-03-25T07:52:52;6.90;99.90
20496;DHT22;10406;54.132;17.968;2024-03-25T07:58:11;7.30;99.90
20496;DHT22;10406;54.132;17.968;2024-03-25T08:03:32;7.30;99.90
20496;DHT22;10406;54.132;17.968;2024-03-25T08:08:52;7.70;99.90
20496;DHT22;10406;54.132;17.968;2024-03-25T08:14:15;7.70;99.90
20496;DHT22;10406;54.132;17.968;2024-03-25T08:19:36;7.70;99.90
20496;DHT22;10406;54.132;17.968;2024-03-25T08:24:56;7.60;99.90
20496;DHT22;10406;54.132;17.968;2024-03-25T08:30:15;7.60;99.90
20496;DHT22;10406;54.132;17.968;2024-03-25T08:35:37;7.60;99.90
20496;DHT22;10406;54.132;17.968;2024-03-25T08:40:57;7.60;99.90
20496;DHT22;10406;54.132;17.968;2024-03-25T08:46:18;7.60;99.90
20496;DHT22;10406;54.132;17.968;2024-03-25T08:51:39;7.50;99.90
20496;DHT22;10406;54.132;17.968;2024-03-25T08:56:59;7.40;99.90
20496;DHT22;10406;54.132;17.968;2024-03-25T09:02:19;7.50;99.90
20496;DHT22;10406;54.132;17.968;2024-03-25T09:07:41;7.40;99.90
20496;DHT22;10406;54.132;17.968;2024-03-25T09:13:00;7.40;99.90
20496;DHT22;10406;54.132;17.968;2024-03-25T09:18:20;7.30;99.90
20496;DHT22;10406;54.132;17.968;2024-03-25T09:23:41;7.30;99.90
20496;DHT22;10406;54.132;17.968;2024-03-25T09:29:01;7.20;99.90
20496;DHT22;10406;54.132;17.968;2024-03-25T09:34:21;7.20;99.90
20496;DHT22;10406;54.132;17.968;2024-03-25T09:39:42;7.30;99.90
20496;DHT22;10406;54.132;17.968;2024-03-25T09:45:02;7.30;99.90
20496;DHT22;10406;54.132;17.968;2024-03-25T09:50:25;7.40;99.90
20496;DHT22;10406;54.132;17.968;2024-03-25T09:55:47;7.60;99.90
20496;DHT22;10406;54.132;17.968;2024-03-25T10:01:06;8.10;99.90
20496;DHT22;10406;54.132;17.968;2024-03-25T10:06:26;8.70;99.90
20496;DHT22;10406;54.132;17.968;2024-03-25T10:11:48;8.90;99.90
20496;DHT22;10406;54.132;17.968;2024-03-25T10:17:08;9.30;99.90
20496;DHT22;10406;54.132;17.968;2024-03-25T10:22:28;9.80;99.90
20496;DHT22;10406;54.132;17.968;2024-03-25T10:27:59;10.20;99.90
20496;DHT22;10406;54.132;17.968;2024-03-25T10:33:20;10.30;99.90
20496;DHT22;10406;54.132;17.968;2024-03-25T10:38:41;10.50;99.90
20496;DHT22;10406;54.132;17.968;2024-03-25T10:44:03;10.80;99.90
20496;DHT22;10406;54.132;17.968;2024-03-25T10:49:27;10.80;99.90
20496;DHT22;10406;54.132;17.968;2024-03-25T10:54:52;10.90;99.90
20496;DHT22;10406;54.132;17.968;2024-03-25T11:00:14;10.70;99.90
20496;DHT22;10406;54.132;17.968;2024-03-25T11:05:35;10.70;99.90
20496;DHT22;10406;54.132;17.968;2024-03-25T11:10:56;10.90;99.90
20496;DHT22;10406;54.132;17.968;2024-03-25T11:16:27;11.10;99.90
20496;DHT22;10406;54.132;17.968;2024-03-25T11:21:48;11.10;99.90
20496;DHT22;10406;54.132;17.968;2024-03-25T11:27:09;11.00;99.90
20496;DHT22;10406;54.132;17.968;2024-03-25T11:32:30;11.00;99.90
20496;DHT22;10406;54.132;17.968;2024-03-25T11:38:01;11.30;99.90
20496;DHT22;10406;54.132;17.968;2024-03-25T11:43:21;11.30;99.90
20496;DHT22;10406;54.132;17.968;2024-03-25T11:48:43;11.10;99.90
20496;DHT22;10406;54.132;17.968;2024-03-25T11:54:03;11.10;99.90
20496;DHT22;10406;54.132;17.968;2024-03-25T11:59:24;10.40;99.90
20496;DHT22;10406;54.132;17.968;2024-03-25T12:04:45;10.00;99.90
20496;DHT22;10406;54.132;17.968;2024-03-25T12:10:05;9.50;99.90
20496;DHT22;10406;54.132;17.968;2024-03-25T12:15:43;9.10;99.90
20496;DHT22;10406;54.132;17.968;2024-03-25T12:21:05;8.80;99.90
20496;DHT22;10406;54.132;17.968;2024-03-25T12:26:25;8.80;99.90
20496;DHT22;10406;54.132;17.968;2024-03-25T12:31:53;8.70;99.90
20496;DHT22;10406;54.132;17.968;2024-03-25T12:37:15;8.50;99.90
20496;DHT22;10406;54.132;17.968;2024-03-25T12:42:34;8.40;99.90
20496;DHT22;10406;54.132;17.968;2024-03-25T12:47:54;8.50;99.90
20496;DHT22;10406;54.132;17.968;2024-03-25T12:53:17;8.60;99.90
20496;DHT22;10406;54.132;17.968;2024-03-25T12:58:37;8.70;99.90
20496;DHT22;10406;54.132;17.968;2024-03-25T13:03:56;8.90;99.90
20496;DHT22;10406;54.132;17.968;2024-03-25T13:09:17;8.80;99.90
20496;DHT22;10406;54.132;17.968;2024-03-25T13:14:37;8.40;99.90
20496;DHT22;10406;54.132;17.968;2024-03-25T13:19:57;8.20;99.90
20496;DHT22;10406;54.132;17.968;2024-03-25T13:25:18;7.90;99.90
20496;DHT22;10406;54.132;17.968;2024-03-25T13:30:38;7.80;99.90
20496;DHT22;10406;54.132;17.968;2024-03-25T13:35:58;7.40;99.90
20496;DHT22;10406;54.132;17.968;2024-03-25T13:41:19;7.40;99.90
20496;DHT22;10406;54.132;17.968;2024-03-25T13:51:59;6.50;99.90
20496;DHT22;10406;54.132;17.968;2024-03-25T13:57:20;6.30;99.90
20496;DHT22;10406;54.132;17.968;2024-03-25T14:02:40;6.10;99.90
20496;DHT22;10406;54.132;17.968;2024-03-25T14:08:00;6.00;99.90
20496;DHT22;10406;54.132;17.968;2024-03-25T14:13:21;6.10;99.90
20496;DHT22;10406;54.132;17.968;2024-03-25T14:18:41;6.40;99.90
20496;DHT22;10406;54.132;17.968;2024-03-25T14:24:01;6.70;99.90
20496;DHT22;10406;54.132;17.968;2024-03-25T14:29:22;7.00;99.90
20496;DHT22;10406;54.132;17.968;2024-03-25T14:34:42;7.10;99.90
20496;DHT22;10406;54.132;17.968;2024-03-25T14:40:02;7.50;99.90
20496;DHT22;10406;54.132;17.968;2024-03-25T14:45:24;8.30;99.90
20496;DHT22;10406;54.132;17.968;2024-03-25T14:50:44;8.20;99.90
20496;DHT22;10406;54.132;17.968;2024-03-25T14:56:04;8.00;99.90
20496;DHT22;10406;54.132;17.968;2024-03-25T15:01:25;8.30;99.90
20496;DHT22;10406;54.132;17.968;2024-03-25T15:06:45;8.20;99.90
20496;DHT22;10406;54.132;17.968;2024-03-25T15:12:05;7.90;99.90
20496;DHT22;10406;54.132;17.968;2024-03-25T15:17:27;7.70;99.90
20496;DHT22;10406;54.132;17.968;2024-03-25T15:22:47;7.80;99.90
20496;DHT22;10406;54.132;17.968;2024-03-25T15:28:07;8.20;99.90
20496;DHT22;10406;54.132;17.968;2024-03-25T15:33:31;8.20;99.90
20496;DHT22;10406;54.132;17.968;2024-03-25T15:38:51;8.30;99.90
20496;DHT22;10406;54.132;17.968;2024-03-25T15:44:13;8.10;99.90
20496;DHT22;10406;54.132;17.968;2024-03-25T15:49:35;7.60;99.90
20496;DHT22;10406;54.132;17.968;2024-03-25T15:54:55;7.20;99.90
20496;DHT22;10406;54.132;17.968;2024-03-25T16:00:15;6.80;99.90
20496;DHT22;10406;54.132;17.968;2024-03-25T16:05:36;6.60;99.90
20496;DHT22;10406;54.132;17.968;2024-03-25T16:10:56;6.60;99.90
20496;DHT22;10406;54.132;17.968;2024-03-25T16:16:16;6.60;99.90
20496;DHT22;10406;54.132;17.968;2024-03-25T16:21:38;6.40;99.90
20496;DHT22;10406;54.132;17.968;2024-03-25T16:26:58;6.30;99.90
20496;DHT22;10406;54.132;17.968;2024-03-25T16:32:18;6.20;99.90
20496;DHT22;10406;54.132;17.968;2024-03-25T16:37:39;6.20;99.90
20496;DHT22;10406;54.132;17.968;2024-03-25T16:42:59;6.10;99.90
20496;DHT22;10406;54.132;17.968;2024-03-25T16:48:19;6.00;99.90
20496;DHT22;10406;54.132;17.968;2024-03-25T16:53:40;6.60;99.90
20496;DHT22;10406;54.132;17.968;2024-03-25T16:59:00;5.90;99.90
20496;DHT22;10406;54.132;17.968;2024-03-25T17:04:20;5.90;99.90
20496;DHT22;10406;54.132;17.968;2024-03-25T17:09:42;5.80;99.90
20496;DHT22;10406;54.132;17.968;2024-03-25T17:15:02;5.80;99.90
20496;DHT22;10406;54.132;17.968;2024-03-25T17:20:22;5.70;99.90
20496;DHT22;10406;54.132;17.968;2024-03-25T17:25:44;5.50;99.90
20496;DHT22;10406;54.132;17.968;2024-03-25T17:31:04;5.40;99.90
20496;DHT22;10406;54.132;17.968;2024-03-25T17:36:24;5.20;99.90
20496;DHT22;10406;54.132;17.968;2024-03-25T17:41:45;5.00;99.90
20496;DHT22;10406;54.132;17.968;2024-03-25T17:47:05;4.70;99.90
20496;DHT22;10406;54.132;17.968;2024-03-25T17:52:25;4.60;99.90
20496;DHT22;10406;54.132;17.968;2024-03-25T17:57:47;4.40;99.90
20496;DHT22;10406;54.132;17.968;2024-03-25T18:03:07;4.20;99.90
20496;DHT22;10406;54.132;17.968;2024-03-25T18:08:27;3.80;99.90
20496;DHT22;10406;54.132;17.968;2024-03-25T18:13:48;3.60;99.90
20496;DHT22;10406;54.132;17.968;2024-03-25T18:19:08;3.40;99.90
20496;DHT22;10406;54.132;17.968;2024-03-25T18:24:28;3.30;99.90
20496;DHT22;10406;54.132;17.968;2024-03-25T18:29:50;3.20;99.90
20496;DHT22;10406;54.132;17.968;2024-03-25T18:35:10;3.20;99.90
20496;DHT22;10406;54.132;17.968;2024-03-25T18:40:29;3.20;99.90
20496;DHT22;10406;54.132;17.968;2024-03-25T18:45:51;3.30;99.90
20496;DHT22;10406;54.132;17.968;2024-03-25T18:51:10;3.40;99.90
20496;DHT22;10406;54.132;17.968;2024-03-25T18:56:31;3.10;99.90
20496;DHT22;10406;54.132;17.968;2024-03-25T19:01:52;3.00;99.90
20496;DHT22;10406;54.132;17.968;2024-03-25T19:07:13;2.70;99.90
20496;DHT22;10406;54.132;17.968;2024-03-25T19:12:32;2.60;99.90
20496;DHT22;10406;54.132;17.968;2024-03-25T19:17:57;2.40;99.90
20496;DHT22;10406;54.132;17.968;2024-03-25T19:23:22;2.30;99.90
20496;DHT22;10406;54.132;17.968;2024-03-25T19:28:42;2.10;99.90
20496;DHT22;10406;54.132;17.968;2024-03-25T19:34:03;2.00;99.90
20496;DHT22;10406;54.132;17.968;2024-03-25T19:39:23;2.10;99.90
20496;DHT22;10406;54.132;17.968;2024-03-25T19:44:45;2.00;99.90
20496;DHT22;10406;54.132;17.968;2024-03-25T19:50:07;2.00;99.90
20496;DHT22;10406;54.132;17.968;2024-03-25T19:55:27;2.10;99.90
20496;DHT22;10406;54.132;17.968;2024-03-25T20:00:47;2.20;99.90
20496;DHT22;10406;54.132;17.968;2024-03-25T20:06:09;2.20;99.90
20496;DHT22;10406;54.132;17.968;2024-03-25T20:11:28;2.30;99.90
20496;DHT22;10406;54.132;17.968;2024-03-25T20:16:49;2.30;99.90
20496;DHT22;10406;54.132;17.968;2024-03-25T20:22:10;2.40;99.90
20496;DHT22;10406;54.132;17.968;2024-03-25T20:27:30;2.50;99.90
20496;DHT22;10406;54.132;17.968;2024-03-25T20:32:50;2.60;99.90
20496;DHT22;10406;54.132;17.968;2024-03-25T20:38:12;2.70;99.90
20496;DHT22;10406;54.132;17.968;2024-03-25T20:43:32;2.70;99.90
20496;DHT22;10406;54.132;17.968;2024-03-25T20:48:52;2.90;99.90
20496;DHT22;10406;54.132;17.968;2024-03-25T20:54:14;3.00;99.90
20496;DHT22;10406;54.132;17.968;2024-03-25T20:59:33;3.00;99.90
20496;DHT22;10406;54.132;17.968;2024-03-25T21:04:53;3.00;99.90
20496;DHT22;10406;54.132;17.968;2024-03-25T21:10:15;2.90;99.90
20496;DHT22;10406;54.132;17.968;2024-03-25T21:15:36;2.90;99.90
20496;DHT22;10406;54.132;17.968;2024-03-25T21:20:56;2.70;99.90
20496;DHT22;10406;54.132;17.968;2024-03-25T21:26:17;2.50;99.90
20496;DHT22;10406;54.132;17.968;2024-03-25T21:31:37;2.30;99.90
20496;DHT22;10406;54.132;17.968;2024-03-25T21:36:57;2.20;99.90
20496;DHT22;10406;54.132;17.968;2024-03-25T21:42:19;1.90;99.90
20496;DHT22;10406;54.132;17.968;2024-03-25T21:47:39;1.60;99.90
20496;DHT22;10406;54.132;17.968;2024-03-25T21:52:59;1.40;99.90
20496;DHT22;10406;54.132;17.968;2024-03-25T21:58:20;1.30;99.90
20496;DHT22;10406;54.132;17.968;2024-03-25T22:03:40;1.10;99.90
20496;DHT22;10406;54.132;17.968;2024-03-25T22:09:00;1.00;99.90
20496;DHT22;10406;54.132;17.968;2024-03-25T22:14:22;0.90;99.90
20496;DHT22;10406;54.132;17.968;2024-03-25T22:19:41;0.80;99.90
20496;DHT22;10406;54.132;17.968;2024-03-25T22:25:01;0.70;99.90
20496;DHT22;10406;54.132;17.968;2024-03-25T22:30:23;0.60;99.90
20496;DHT22;10406;54.132;17.968;2024-03-25T22:41:03;0.50;99.90
20496;DHT22;10406;54.132;17.968;2024-03-25T22:46:24;0.40;99.90
20496;DHT22;10406;54.132;17.968;2024-03-25T22:51:44;0.50;99.90
20496;DHT22;10406;54.132;17.968;2024-03-25T22:57:04;0.20;99.90
20496;DHT22;10406;54.132;17.968;2024-03-25T23:02:26;0.40;99.90
20496;DHT22;10406;54.132;17.968;2024-03-25T23:07:46;0.50;99.90
20496;DHT22;10406;54.132;17.968;2024-03-25T23:36:04;0.10;99.90
20496;DHT22;10406;54.132;17.968;2024-03-25T23:41:24;0.10;99.90
20496;DHT22;10406;54.132;17.968;2024-03-25T23:46:44;-0.10;99.90
20496;DHT22;10406;54.132;17.968;2024-03-25T23:52:05;-0.20;99.90
20496;DHT22;10406;54.132;17.968;2024-03-25T23:57:25;-0.20;99.90
